createdAt,value
2018-01-12T00:01:14.184Z,32.87
2018-01-12T00:03:40.764Z,35.13
2018-01-12T00:06:07.371Z,26.70
2018-01-12T00:08:33.952Z,36.47
2018-01-12T00:11:00.531Z,32.00
2018-01-12T00:13:27.418Z,35.83
2018-01-12T00:15:54.010Z,33.42
2018-01-12T00:18:20.587Z,31.27
2018-01-12T00:20:47.194Z,31.77
2018-01-12T00:23:13.771Z,34.07
2018-01-12T00:25:40.346Z,38.93
2018-01-12T00:28:06.936Z,32.73
2018-01-12T00:30:33.518Z,36.67
2018-01-12T00:33:00.102Z,38.40
2018-01-12T00:35:26.779Z,39.97
2018-01-12T00:37:53.367Z,37.70
2018-01-12T00:40:19.950Z,33.28
2018-01-12T00:42:46.567Z,34.10
2018-01-12T00:45:13.162Z,33.47
2018-01-12T00:47:39.736Z,32.40
2018-01-12T00:50:06.355Z,31.70
2018-01-12T00:52:32.934Z,36.83
2018-01-12T00:54:59.511Z,30.80
2018-01-12T00:57:26.125Z,29.73
2018-01-12T00:59:52.711Z,32.80
2018-01-12T01:02:19.306Z,32.47
2018-01-12T01:04:45.890Z,36.92
2018-01-12T01:07:12.494Z,29.27
2018-01-12T01:09:39.071Z,33.47
2018-01-12T01:12:05.647Z,29.13
2018-01-12T01:14:32.234Z,25.92
2018-01-12T01:16:58.816Z,30.10
2018-01-12T01:19:25.406Z,32.60
2018-01-12T01:21:52.029Z,46.35
2018-01-12T01:24:18.610Z,30.25
2018-01-12T01:26:45.188Z,27.40
2018-01-12T01:29:11.782Z,51.95
2018-01-12T01:31:38.370Z,34.42
2018-01-12T01:34:04.943Z,29.73
2018-01-12T01:36:31.567Z,25.33
2018-01-12T01:38:58.161Z,27.10
2018-01-12T01:41:24.746Z,35.83
2018-01-12T01:43:51.330Z,25.17
2018-01-12T01:46:17.929Z,28.38
2018-01-12T01:48:44.531Z,22.80
2018-01-12T01:51:11.114Z,24.98
2018-01-12T01:53:37.731Z,27.25
2018-01-12T01:56:04.322Z,24.75
2018-01-12T01:58:30.904Z,24.42
2018-01-12T02:00:57.883Z,20.42
2018-01-12T02:03:24.462Z,21.77
2018-01-12T02:05:51.051Z,22.62
2018-01-12T02:08:17.654Z,24.45
2018-01-12T02:10:44.242Z,19.85
2018-01-12T02:13:10.819Z,22.52
2018-01-12T02:15:37.422Z,23.70
2018-01-12T02:18:04.006Z,23.33
2018-01-12T02:20:30.599Z,21.75
2018-01-12T02:22:57.195Z,20.85
2018-01-12T02:25:23.779Z,22.75
2018-01-12T02:27:50.363Z,26.40
2018-01-12T02:30:16.971Z,23.73
2018-01-12T02:32:43.558Z,24.75
2018-01-12T02:35:10.147Z,26.10
2018-01-12T02:37:36.747Z,23.52
2018-01-12T02:40:03.361Z,33.05
2018-01-12T02:42:29.943Z,27.67
2018-01-12T02:44:56.534Z,28.77
2018-01-12T02:47:23.443Z,34.03
2018-01-12T02:49:50.034Z,32.40
2018-01-12T02:52:16.615Z,30.45
2018-01-12T02:54:43.220Z,31.20
2018-01-12T02:57:09.795Z,44.20
2018-01-12T02:59:36.383Z,41.42
2018-01-12T03:02:02.974Z,43.85
2018-01-12T03:04:29.558Z,39.95
2018-01-12T03:06:56.151Z,39.03
2018-01-12T03:09:22.993Z,43.75
2018-01-12T03:11:49.578Z,43.75
2018-01-12T03:14:16.158Z,56.30
2018-01-12T03:16:42.783Z,44.83
2018-01-12T03:19:09.363Z,50.17
2018-01-12T03:21:35.951Z,55.28
2018-01-12T03:24:02.884Z,51.15
2018-01-12T03:26:29.467Z,47.30
2018-01-12T03:28:56.051Z,52.42
2018-01-12T03:31:22.676Z,48.22
2018-01-12T03:33:49.263Z,55.45
2018-01-12T03:36:15.848Z,50.30
2018-01-12T03:38:42.426Z,64.00
2018-01-12T03:41:09.008Z,48.87
2018-01-12T03:43:35.872Z,52.03
2018-01-12T03:46:02.459Z,64.72
2018-01-12T03:48:29.043Z,67.20
2018-01-12T03:50:55.665Z,60.20
2018-01-12T03:53:22.247Z,64.57
2018-01-12T03:55:48.828Z,58.53
2018-01-12T03:58:15.414Z,68.78
2018-01-12T04:00:42.020Z,65.62
2018-01-12T04:03:08.603Z,65.70
2018-01-12T04:05:35.192Z,78.75
2018-01-12T04:08:01.791Z,76.90
2018-01-12T04:10:28.378Z,78.50
2018-01-12T04:12:54.964Z,88.72
2018-01-12T04:15:21.552Z,74.85
2018-01-12T04:17:48.464Z,76.12
2018-01-12T04:20:15.053Z,79.07
2018-01-12T04:22:41.635Z,78.65
2018-01-12T04:25:08.229Z,97.28
2018-01-12T04:27:34.807Z,77.10
2018-01-12T04:30:01.400Z,72.32
2018-01-12T04:32:28.015Z,83.05
2018-01-12T04:34:54.600Z,79.00
2018-01-12T04:37:21.188Z,79.05
2018-01-12T04:39:47.774Z,72.97
2018-01-12T04:42:14.724Z,78.45
2018-01-12T04:44:41.307Z,78.82
2018-01-12T04:47:07.895Z,117.50
2018-01-12T04:49:34.491Z,73.32
2018-01-12T04:52:01.146Z,93.40
2018-01-12T04:54:27.711Z,67.50
2018-01-12T04:56:54.540Z,71.15
2018-01-12T04:59:21.132Z,75.57
2018-01-12T05:01:47.727Z,70.70
2018-01-12T05:04:14.343Z,69.32
2018-01-12T05:06:40.940Z,78.40
2018-01-12T05:09:07.526Z,60.28
2018-01-12T05:11:34.128Z,56.75
2018-01-12T05:14:00.721Z,70.82
2018-01-12T05:16:27.309Z,66.30
2018-01-12T05:18:53.919Z,59.83
2018-01-12T05:21:20.509Z,62.15
2018-01-12T05:23:47.102Z,72.85
2018-01-12T05:26:13.726Z,60.40
2018-01-12T05:28:40.306Z,59.13
2018-01-12T05:31:06.893Z,59.03
2018-01-12T05:33:33.488Z,59.67
2018-01-12T05:36:00.077Z,61.63
2018-01-12T05:38:26.715Z,57.13
2018-01-12T05:40:53.303Z,58.38
2018-01-12T05:43:19.890Z,60.88
2018-01-12T05:45:46.480Z,67.78
2018-01-12T05:48:13.066Z,56.95
2018-01-12T05:50:39.859Z,46.20
2018-01-12T05:53:06.468Z,54.47
2018-01-12T05:55:33.061Z,58.05
2018-01-12T05:57:59.656Z,56.42
2018-01-12T06:00:26.234Z,51.33
2018-01-12T06:02:58.742Z,45.63
2018-01-12T06:05:31.408Z,49.60
2018-01-12T06:07:58.019Z,52.42
2018-01-12T06:10:24.603Z,44.05
2018-01-12T06:12:51.188Z,47.20
2018-01-12T06:15:17.799Z,49.88
2018-01-12T06:17:44.379Z,51.00
2018-01-12T06:20:10.958Z,48.58
2018-01-12T06:22:37.586Z,57.75
2018-01-12T06:25:04.171Z,57.95
2018-01-12T06:27:30.751Z,59.85
2018-01-12T06:29:57.350Z,63.30
2018-01-12T06:32:23.948Z,48.47
2018-01-12T06:34:50.535Z,54.70
2018-01-12T06:37:17.127Z,60.55
2018-01-12T06:39:43.731Z,60.85
2018-01-12T06:42:10.310Z,62.05
2018-01-12T06:44:36.894Z,60.78
2018-01-12T06:47:03.475Z,62.13
2018-01-12T06:49:30.114Z,58.72
2018-01-12T06:51:56.973Z,59.80
2018-01-12T06:54:23.555Z,68.18
2018-01-12T06:56:50.143Z,67.32
2018-01-12T06:59:17.104Z,62.33
2018-01-12T07:01:43.780Z,75.20
2018-01-12T07:04:10.368Z,61.75
2018-01-12T07:06:37.006Z,61.30
2018-01-12T07:09:03.605Z,68.18
2018-01-12T07:11:30.194Z,68.25
2018-01-12T07:13:56.786Z,67.30
2018-01-12T07:16:23.375Z,58.53
2018-01-12T07:18:49.982Z,68.20
2018-01-12T07:21:22.855Z,78.18
2018-01-12T07:23:49.479Z,79.18
2018-01-12T07:26:16.063Z,72.45
2018-01-12T07:28:42.651Z,81.07
2018-01-12T07:31:09.240Z,80.22
2018-01-12T07:33:35.828Z,68.60
2018-01-12T07:36:02.417Z,86.93
2018-01-12T07:38:28.995Z,83.03
2018-01-12T07:40:55.567Z,75.85
2018-01-12T07:43:22.175Z,82.88
2018-01-12T07:45:48.759Z,80.12
2018-01-12T07:48:15.338Z,77.60
2018-01-12T07:50:41.955Z,84.87
2018-01-12T07:53:14.232Z,85.75
2018-01-12T07:55:40.815Z,81.20
2018-01-12T07:58:07.711Z,79.62
2018-01-12T08:00:39.942Z,90.87
2018-01-12T08:03:06.523Z,88.75
2018-01-12T08:05:33.458Z,82.80
2018-01-12T08:08:00.052Z,88.18
2018-01-12T08:10:26.627Z,92.28
2018-01-12T08:12:53.214Z,81.37
2018-01-12T08:15:19.794Z,84.03
2018-01-12T08:17:46.383Z,90.85
2018-01-12T08:20:12.998Z,90.78
2018-01-12T08:22:39.587Z,89.53
2018-01-12T08:25:06.165Z,86.90
2018-01-12T08:27:32.979Z,93.75
2018-01-12T08:29:59.563Z,89.22
2018-01-12T08:32:26.138Z,98.05
2018-01-12T08:34:52.834Z,97.15
2018-01-12T08:37:19.418Z,90.25
2018-01-12T08:39:46.000Z,87.55
2018-01-12T08:42:12.590Z,87.28
2018-01-12T08:44:39.176Z,98.72
2018-01-12T08:47:05.766Z,95.97
2018-01-12T08:49:32.390Z,97.03
2018-01-12T08:51:58.976Z,102.62
2018-01-12T08:54:25.564Z,94.82
2018-01-12T08:56:52.168Z,99.20
2018-01-12T08:59:18.743Z,80.82
2018-01-12T09:01:45.331Z,85.70
2018-01-12T09:04:11.931Z,93.60
2018-01-12T09:06:38.506Z,89.28
2018-01-12T09:09:05.094Z,110.72
2018-01-12T09:11:31.718Z,103.38
2018-01-12T09:13:58.306Z,79.37
2018-01-12T09:16:26.838Z,84.43
2018-01-12T09:18:59.434Z,90.10
2018-01-12T09:21:26.027Z,97.30
2018-01-12T09:23:54.351Z,95.57
2018-01-12T09:26:20.926Z,93.62
2018-01-12T09:28:47.534Z,92.45
2018-01-12T09:31:14.929Z,105.03
2018-01-12T09:33:47.351Z,102.35
2018-01-12T09:36:13.930Z,88.15
2018-01-12T09:38:46.754Z,89.07
2018-01-12T09:41:13.338Z,109.30
2018-01-12T09:43:39.930Z,101.47
2018-01-12T09:46:06.831Z,92.30
2018-01-12T09:48:33.424Z,105.90
2018-01-12T09:51:00.015Z,100.65
2018-01-12T09:53:26.654Z,94.53
2018-01-12T09:55:53.210Z,88.07
2018-01-12T09:58:19.800Z,87.05
2018-01-12T10:01:00.281Z,114.68
2018-01-12T10:03:26.866Z,92.35
2018-01-12T10:05:53.475Z,99.25
2018-01-12T10:08:23.814Z,89.62
2018-01-12T10:10:50.399Z,95.90
2018-01-12T10:13:17.003Z,112.07
2018-01-12T10:15:43.582Z,94.13
2018-01-12T10:18:28.053Z,111.47
2018-01-12T10:20:54.598Z,102.65
2018-01-12T10:23:21.178Z,99.07
2018-01-12T10:25:48.026Z,96.85
2018-01-12T10:28:14.613Z,100.90
2018-01-12T10:30:57.949Z,112.72
2018-01-12T10:33:45.443Z,96.28
2018-01-12T10:36:17.880Z,103.10
2018-01-12T10:38:44.499Z,104.43
2018-01-12T10:41:16.956Z,102.43
2018-01-12T10:43:43.549Z,107.65
2018-01-12T10:46:16.142Z,106.90
2018-01-12T10:48:58.515Z,107.18
2018-01-12T10:51:31.114Z,98.87
2018-01-12T10:53:57.722Z,102.28
2018-01-12T10:56:24.307Z,109.63
2018-01-12T10:58:50.895Z,108.82
2018-01-12T11:01:17.488Z,103.40
2018-01-12T11:03:44.070Z,106.75
2018-01-12T11:06:10.791Z,120.45
2018-01-12T11:08:37.383Z,105.45
2018-01-12T11:11:03.976Z,109.30
2018-01-12T11:13:30.915Z,123.68
2018-01-12T11:15:57.498Z,105.40
2018-01-12T11:18:24.100Z,103.87
2018-01-12T11:20:50.693Z,103.60
2018-01-12T11:23:17.283Z,112.28
2018-01-12T11:25:43.875Z,103.07
2018-01-12T11:28:10.483Z,100.03
2018-01-12T11:30:37.072Z,92.28
2018-01-12T11:33:03.668Z,102.65
2018-01-12T11:35:30.274Z,116.70
2018-01-12T11:37:56.864Z,114.53
2018-01-12T11:40:23.627Z,91.45
2018-01-12T11:42:50.217Z,98.03
2018-01-12T11:45:16.794Z,103.38
2018-01-12T11:47:43.402Z,108.32
2018-01-12T11:50:10.035Z,92.53
2018-01-12T11:52:36.624Z,91.95
2018-01-12T11:55:03.332Z,94.80
2018-01-12T11:57:29.930Z,97.50
2018-01-12T11:59:56.528Z,104.55
2018-01-12T12:02:23.322Z,94.77
2018-01-12T12:04:49.902Z,87.40
2018-01-12T12:07:16.495Z,100.68
2018-01-12T12:09:43.105Z,89.90
2018-01-12T12:12:09.683Z,95.20
2018-01-12T12:14:36.271Z,94.65
2018-01-12T12:17:02.856Z,93.25
2018-01-12T12:19:29.445Z,82.50
2018-01-12T12:21:56.130Z,91.18
2018-01-12T12:24:22.720Z,94.07
2018-01-12T12:26:49.300Z,83.85
2018-01-12T12:29:15.903Z,96.28
2018-01-12T12:31:42.488Z,85.12
2018-01-12T12:34:09.102Z,84.35
2018-01-12T12:36:35.757Z,88.30
2018-01-12T12:39:02.335Z,83.40
2018-01-12T12:41:28.920Z,69.30
2018-01-12T12:43:55.531Z,82.37
2018-01-12T12:46:22.110Z,85.47
2018-01-12T12:48:48.697Z,83.68
2018-01-12T12:51:15.308Z,83.68
2018-01-12T12:53:41.883Z,86.03
2018-01-12T12:56:08.473Z,73.32
2018-01-12T12:58:35.084Z,81.32
2018-01-12T13:01:01.663Z,76.50
2018-01-12T13:03:28.251Z,77.90
2018-01-12T13:05:55.142Z,76.57
2018-01-12T13:08:21.734Z,77.00
2018-01-12T13:10:48.324Z,90.57
2018-01-12T13:13:14.919Z,64.22
2018-01-12T13:15:41.521Z,79.97
2018-01-12T13:18:08.110Z,85.65
2018-01-12T13:20:34.714Z,83.43
2018-01-12T13:23:01.300Z,69.12
2018-01-12T13:25:27.884Z,81.75
2018-01-12T13:27:54.762Z,69.65
2018-01-12T13:30:21.342Z,71.12
2018-01-12T13:32:47.926Z,77.30
2018-01-12T13:35:14.690Z,72.85
2018-01-12T13:37:41.284Z,72.22
2018-01-12T13:40:07.866Z,58.42
2018-01-12T13:42:34.471Z,66.68
2018-01-12T13:45:01.049Z,68.97
2018-01-12T13:47:27.638Z,65.53
2018-01-12T13:49:54.223Z,72.93
2018-01-12T13:52:20.883Z,69.70
2018-01-12T13:54:47.420Z,69.82
2018-01-12T13:57:13.999Z,68.30
2018-01-12T13:59:40.590Z,66.45
2018-01-12T14:02:07.199Z,54.00
2018-01-12T14:04:33.782Z,78.60
2018-01-12T14:07:00.368Z,61.47
2018-01-12T14:09:26.975Z,63.83
2018-01-12T14:11:53.559Z,74.80
2018-01-12T14:14:20.142Z,73.95
2018-01-12T14:16:46.730Z,76.45
2018-01-12T14:19:13.318Z,73.60
2018-01-12T14:21:39.902Z,64.37
2018-01-12T14:24:06.880Z,62.67
2018-01-12T14:26:33.470Z,68.60
2018-01-12T14:29:01.079Z,70.35
2018-01-12T14:31:28.026Z,58.08
2018-01-12T14:33:54.606Z,70.10
2018-01-12T14:36:21.191Z,71.20
2018-01-12T14:38:48.131Z,75.65
2018-01-12T14:41:14.714Z,67.20
2018-01-12T14:43:41.298Z,58.47
2018-01-12T14:46:07.891Z,65.37
2018-01-12T14:48:34.479Z,62.83
2018-01-12T14:51:01.063Z,59.08
2018-01-12T14:53:27.651Z,61.78
2018-01-12T14:55:54.235Z,55.30
2018-01-12T14:58:20.824Z,52.78
2018-01-12T15:00:47.446Z,62.03
2018-01-12T15:03:14.019Z,71.12
2018-01-12T15:05:40.604Z,56.72
2018-01-12T15:08:07.290Z,54.45
2018-01-12T15:10:33.874Z,63.58
2018-01-12T15:13:00.466Z,47.78
2018-01-12T15:15:27.258Z,55.33
2018-01-12T15:17:53.846Z,51.28
2018-01-12T15:20:20.430Z,51.15
2018-01-12T15:22:47.046Z,49.63
2018-01-12T15:25:13.619Z,53.05
2018-01-12T15:27:40.212Z,58.67
2018-01-12T15:30:06.811Z,50.72
2018-01-12T15:32:33.396Z,50.40
2018-01-12T15:34:59.984Z,51.65
2018-01-12T15:37:26.571Z,61.00
2018-01-12T15:39:53.159Z,51.92
2018-01-12T15:42:19.771Z,47.60
2018-01-12T15:44:46.356Z,51.30
2018-01-12T15:47:12.944Z,44.65
2018-01-12T15:49:39.530Z,46.50
2018-01-12T15:52:06.110Z,47.62
2018-01-12T15:54:32.700Z,49.83
2018-01-12T15:56:59.287Z,44.60
2018-01-12T15:59:25.876Z,43.45
2018-01-12T16:01:52.710Z,44.35
2018-01-12T16:04:19.298Z,38.53
2018-01-12T16:06:45.882Z,37.85
2018-01-12T16:09:12.488Z,36.75
2018-01-12T16:11:39.068Z,37.25
2018-01-12T16:14:05.646Z,40.15
2018-01-12T16:16:32.499Z,35.88
2018-01-12T16:18:59.082Z,36.65
2018-01-12T16:21:25.677Z,38.30
2018-01-12T16:23:52.282Z,35.85
2018-01-12T16:26:18.865Z,34.47
2018-01-12T16:28:45.447Z,34.28
2018-01-12T16:31:12.251Z,33.53
2018-01-12T16:33:38.840Z,36.17
2018-01-12T16:36:05.437Z,40.92
2018-01-12T16:38:32.014Z,36.78
2018-01-12T16:40:58.599Z,38.20
2018-01-12T16:43:25.187Z,35.65
2018-01-12T16:45:51.776Z,38.58
2018-01-12T16:48:18.347Z,35.10
2018-01-12T16:50:44.947Z,32.65
2018-01-12T16:53:11.534Z,35.15
2018-01-12T16:55:38.115Z,34.10
2018-01-12T16:58:04.745Z,34.03
2018-01-12T17:00:31.324Z,34.20
2018-01-12T17:02:57.907Z,40.63
2018-01-12T17:05:24.501Z,32.67
2018-01-12T17:07:51.084Z,41.00
2018-01-12T17:10:17.666Z,34.50
2018-01-12T17:12:44.461Z,38.03
2018-01-12T17:15:11.062Z,37.30
2018-01-12T17:17:37.621Z,38.75
2018-01-12T17:20:04.336Z,39.63
2018-01-12T17:22:30.918Z,37.92
2018-01-12T17:24:57.498Z,37.38
2018-01-12T17:27:24.098Z,34.85
2018-01-12T17:29:50.687Z,42.10
2018-01-12T17:32:17.270Z,34.53
2018-01-12T17:34:44.071Z,36.03
2018-01-12T17:37:10.660Z,35.50
2018-01-12T17:39:37.247Z,33.90
2018-01-12T17:42:03.926Z,36.72
2018-01-12T17:44:30.514Z,36.72
2018-01-12T17:46:57.095Z,33.67
2018-01-12T17:49:24.004Z,40.60
2018-01-12T17:51:50.569Z,36.15
2018-01-12T17:54:17.151Z,33.55
2018-01-12T17:56:43.744Z,38.58
2018-01-12T17:59:10.330Z,41.95
2018-01-12T18:01:36.911Z,36.47
2018-01-12T18:04:03.515Z,36.25
2018-01-12T18:06:30.110Z,31.77
2018-01-12T18:08:56.699Z,39.88
2018-01-12T18:11:23.280Z,43.17
2018-01-12T18:13:49.915Z,34.72
2018-01-12T18:16:16.498Z,39.10
2018-01-12T18:18:43.087Z,36.15
2018-01-12T18:21:09.704Z,35.53
2018-01-12T18:23:36.287Z,36.13
2018-01-12T18:26:02.866Z,37.45
2018-01-12T18:28:29.467Z,41.10
2018-01-12T18:30:56.051Z,40.58
2018-01-12T18:33:22.623Z,42.20
2018-01-12T18:35:49.218Z,38.33
2018-01-12T18:38:15.802Z,39.35
2018-01-12T18:40:42.387Z,36.08
2018-01-12T18:43:08.990Z,42.20
2018-01-12T18:45:35.581Z,39.80
2018-01-12T18:48:02.251Z,37.42
2018-01-12T18:53:02.141Z,40.22
2018-01-12T18:55:28.723Z,39.40
2018-01-12T18:57:55.323Z,37.85
2018-01-12T19:00:21.907Z,38.72
2018-01-12T19:02:48.488Z,45.05
2018-01-12T19:05:15.083Z,41.53
2018-01-12T19:07:41.695Z,46.53
2018-01-12T19:10:08.289Z,40.05
2018-01-12T19:12:34.868Z,44.58
2018-01-12T19:15:01.451Z,42.25
2018-01-12T19:17:28.752Z,52.78
2018-01-12T19:19:55.345Z,46.15
2018-01-12T19:22:21.924Z,45.75
2018-01-12T19:24:48.835Z,42.13
2018-01-12T19:27:15.415Z,40.33
2018-01-12T19:29:41.998Z,44.67
2018-01-12T19:32:08.582Z,39.83
2018-01-12T19:34:35.170Z,48.53
2018-01-12T19:37:01.746Z,51.25
2018-01-12T19:39:28.346Z,40.00
2018-01-12T19:41:54.926Z,48.47
2018-01-12T19:44:21.510Z,52.05
2018-01-12T19:46:48.469Z,49.10
2018-01-12T19:49:15.052Z,50.50
2018-01-12T19:51:41.634Z,48.58
2018-01-12T19:54:08.352Z,41.90
2018-01-12T19:56:34.917Z,42.72
2018-01-12T19:59:01.494Z,51.25
2018-01-12T20:01:28.082Z,42.65
2018-01-12T20:03:54.704Z,40.92
2018-01-12T20:06:21.298Z,50.42
2018-01-12T20:08:47.878Z,45.08
2018-01-12T20:11:14.562Z,51.08
2018-01-12T20:13:41.156Z,46.60
2018-01-12T20:16:07.730Z,48.92
2018-01-12T20:18:34.627Z,50.00
2018-01-12T20:21:01.211Z,59.10
2018-01-12T20:23:27.803Z,40.58
2018-01-12T20:25:54.414Z,44.63
2018-01-12T20:28:21.020Z,51.90
2018-01-12T20:30:47.613Z,51.00
2018-01-12T20:33:14.159Z,44.85
2018-01-12T20:35:40.760Z,49.85
2018-01-12T20:38:07.342Z,48.63
2018-01-12T20:40:33.932Z,42.33
2018-01-12T20:43:00.553Z,48.15
2018-01-12T20:45:27.131Z,43.42
2018-01-12T20:47:53.714Z,49.88
2018-01-12T20:50:20.302Z,47.03
2018-01-12T20:52:46.878Z,44.30
2018-01-12T20:55:14.285Z,45.63
2018-01-12T20:57:40.867Z,49.38
2018-01-12T21:00:07.452Z,45.90
2018-01-12T21:02:34.043Z,40.12
2018-01-12T21:05:00.620Z,49.70
2018-01-12T21:07:27.456Z,48.13
2018-01-12T21:09:54.030Z,41.33
2018-01-12T21:12:20.610Z,48.17
2018-01-12T21:14:47.236Z,44.75
2018-01-12T21:17:13.840Z,42.42
2018-01-12T21:19:40.402Z,49.55
2018-01-12T21:22:06.983Z,52.15
2018-01-12T21:24:33.571Z,46.28
2018-01-12T21:27:00.434Z,45.83
2018-01-12T21:29:27.011Z,49.03
2018-01-12T21:31:53.602Z,51.33
2018-01-12T21:34:20.192Z,45.63
2018-01-12T21:36:46.781Z,46.67
2018-01-12T21:39:13.355Z,43.17
2018-01-12T21:41:39.965Z,50.38
2018-01-12T21:44:06.547Z,48.75
2018-01-12T21:46:33.179Z,47.97
2018-01-12T21:48:59.744Z,43.50
2018-01-12T21:51:26.385Z,53.87
2018-01-12T21:53:52.943Z,47.55
2018-01-12T21:56:19.698Z,46.90
2018-01-12T21:58:46.287Z,46.25
2018-01-12T22:01:12.859Z,43.58
2018-01-12T22:03:39.445Z,53.20
2018-01-12T22:06:06.023Z,52.60
2018-01-12T22:08:32.608Z,43.55
2018-01-12T22:10:59.294Z,47.15
2018-01-12T22:13:25.867Z,50.63
2018-01-12T22:15:52.453Z,51.35
2018-01-12T22:18:19.035Z,53.85
2018-01-12T22:20:45.620Z,51.80
2018-01-12T22:23:12.198Z,52.55
2018-01-12T22:25:38.786Z,47.10
2018-01-12T22:28:05.372Z,49.20
2018-01-12T22:30:31.954Z,52.35
2018-01-12T22:32:58.891Z,45.85
2018-01-12T22:35:25.478Z,51.35
2018-01-12T22:37:52.055Z,49.95
2018-01-12T22:40:19.551Z,47.95
2018-01-12T22:42:46.132Z,56.95
2018-01-12T22:45:12.715Z,44.45
2018-01-12T22:47:39.307Z,53.17
2018-01-12T22:50:05.878Z,44.67
2018-01-12T22:52:32.468Z,46.80
2018-01-12T22:54:59.053Z,51.97
2018-01-12T22:57:25.642Z,43.40
2018-01-12T22:59:52.215Z,53.78
2018-01-12T23:02:18.830Z,49.35
2018-01-12T23:04:45.417Z,56.78
2018-01-12T23:07:11.998Z,45.67
2018-01-12T23:09:38.591Z,48.45
2018-01-12T23:12:05.174Z,54.22
2018-01-12T23:14:31.752Z,48.15
2018-01-12T23:16:58.343Z,46.42
2018-01-12T23:19:24.926Z,53.00
2018-01-12T23:21:51.511Z,51.00
2018-01-12T23:24:18.090Z,50.17
2018-01-12T23:26:44.679Z,49.10
2018-01-12T23:29:11.520Z,49.05
2018-01-12T23:31:38.103Z,49.78
2018-01-12T23:34:04.690Z,49.00
2018-01-12T23:36:31.302Z,63.42
2018-01-12T23:38:57.874Z,54.83
2018-01-12T23:41:24.455Z,50.65
2018-01-12T23:43:51.047Z,44.13
2018-01-12T23:46:17.639Z,40.12
2018-01-12T23:48:44.218Z,50.78
2018-01-12T23:51:10.810Z,49.60
2018-01-12T23:53:37.387Z,51.40
2018-01-12T23:56:03.968Z,48.75
2018-01-12T23:58:30.562Z,44.85
